• Join FlightAware (Why Join?)
  • Login
  • US Flag 
06:42AM EST


 

Airport Tracker/Info


-or-


 

Live Flight TrackerFlight Track Log ✈ EGF3676 ✈ 22-Apr-2013 ✈ KDEN - KLAX

Flight Track Log - Related Links

Times and Time Zones

All times are in EDT time to prevent confusion due to time zone crossing. See the EGF3676 flight status page for this flight to view local times or setup timezone preferences in your user account.

Time Position Orientation Groundspeed Altitude Reporting Facility
EDT Latitude Longitude Course Direction KTS MPH feet Rate Location/Type
06:20PM 39.9000 -104.7500 248° West 242 278 8,100  Level Denver TRACON
06:21PM 39.8500 -104.8333 232° Southwest 281 323 9,900 1,980 Climbing Denver TRACON
06:22PM 39.7355 -105.0258 250° West  Level FlightAware Approximate
06:22PM 39.8167 -104.9167 243° Southwest 286 329 12,100  Level Denver TRACON
06:23PM 39.6962 -105.1449 247° West  Level FlightAware Approximate
06:24PM 39.6588 -105.2649 252° West  Level FlightAware Approximate
06:24PM 39.7622 -105.0392 240° Southwest 306 352 14,000  Level Denver Center
06:25PM 39.6236 -105.3860 248° West  Level FlightAware Approximate
06:25PM 39.7242 -105.1442 245° Southwest 320 368 15,800  Level Denver Center
06:26PM 39.5845 -105.5129 248° West  Level FlightAware Approximate
06:26PM 39.6822 -105.2636 246° West 338 389 17,500  Level Denver Center
06:27PM 39.6397 -105.3786 244° Southwest 355 409 19,100 1,740 Climbing Denver Center
06:28PM 39.5978 -105.4931 245° Southwest 353 406 21,100 2,040 Climbing Denver Center
06:29PM 39.5542 -105.6133 245° Southwest 344 396 23,300 1,860 Climbing Denver Center
06:30PM 39.5200 -105.7281 249° West 328 377 25,000 1,380 Climbing Denver Center
06:31PM 39.4900 -105.8392 251° West 322 371 26,200 1,080 Climbing Denver Center
06:32PM 39.4600 -105.9514 251° West 326 375 27,300 1,020 Climbing Denver Center
06:33PM 39.4289 -106.0658 251° West 334 384 28,300 1,020 Climbing Denver Center
06:34PM 39.3950 -106.1869 250° West 338 389 29,400 900 Climbing Denver Center
06:35PM 39.3628 -106.2986 250° West 344 396 30,200 780 Climbing Denver Center
06:36PM 39.3314 -106.4103 250° West 346 398 31,000 780 Climbing Denver Center
06:37PM 39.2936 -106.5419 250° West 350 403 31,900 660 Climbing Denver Center
06:38PM 39.2608 -106.6561 250° West 353 406 32,400 480 Climbing Denver Center
06:39PM 39.2053 -106.7811 240° Southwest 363 418 33,000 480 Climbing Denver Center
06:40PM 39.1403 -106.8828 231° Southwest 379 436 33,500 480 Climbing Denver Center
06:41PM 39.0767 -106.9819 230° Southwest 376 433 34,000 540 Climbing Denver Center
06:42PM 39.0019 -107.1003 231° Southwest 379 436 34,700 600 Climbing Denver Center
06:43PM 38.9383 -107.2014 231° Southwest 379 436 35,300 600 Climbing Denver Center
06:44PM 38.8669 -107.3153 231° Southwest 367 422 36,000 300 Climbing Denver Center
06:45PM 38.8025 -107.4139 230° Southwest 374 430 36,000  Level Denver Center
06:46PM 38.7364 -107.5164 230° Southwest 387 445 36,000  Level Denver Center
06:47PM 38.6575 -107.6400 231° Southwest 397 457 36,000  Level Denver Center
06:48PM 38.5903 -107.7453 231° Southwest 399 459 36,000  Level Denver Center
06:49PM 38.5106 -107.8692 231° Southwest 402 463 36,000  Level Denver Center
06:50PM 38.4433 -107.9717 230° Southwest 396 456 36,000  Level Denver Center
06:51PM 38.3647 -108.0917 230° Southwest 395 455 36,000  Level Denver Center
06:52PM 38.2972 -108.1958 230° Southwest 397 457 36,000  Level Denver Center
06:53PM 38.2281 -108.3006 230° Southwest 402 463 36,000  Level Denver Center
06:55PM 38.1475 -108.4228 230° Southwest 404 465 36,000  Level Denver Center
06:56PM 38.0789 -108.5272 230° Southwest 402 463 36,000  Level Denver Center
06:57PM 38.0014 -108.6422 229° Southwest 399 459 36,000  Level Denver Center
06:58PM 37.9317 -108.7472 230° Southwest 404 465 36,000  Level Denver Center
06:59PM 37.8503 -108.8675 229° Southwest 404 465 36,000  Level Denver Center
07:00PM 37.7861 -108.9772 234° Southwest 405 466 36,000  Level Denver Center
07:01PM 37.7278 -109.1142 242° Southwest 396 456 36,000  Level Denver Center
07:02PM 37.6758 -109.2314 241° Southwest 400 460 36,000  Level Denver Center
07:03PM 37.6319 -109.3289 240° Southwest 401 461 36,000  Level Denver Center
07:04PM 37.5608 -109.4878 241° Southwest 408 470 36,000  Level Denver Center
07:05PM 37.5083 -109.6067 241° Southwest 407 468 36,000  Level Denver Center
07:06PM 37.4450 -109.7428 240° Southwest 406 467 36,000  Level Denver Center
07:07PM 37.3911 -109.8631 241° Southwest 411 473 36,000  Level Denver Center
07:08PM 37.3283 -110.0017 240° Southwest 412 474 36,000  Level Denver Center
07:09PM 37.2744 -110.1208 240° Southwest 411 473 36,000  Level Denver Center
07:10PM 37.2197 -110.2369 239° Southwest 404 465 36,000  Level Denver Center
07:11PM 37.1642 -110.3594 240° Southwest 405 466 36,000  Level Denver Center
07:12PM 37.0711 -110.5561 239° Southwest 407 468 36,000  Level Los Angeles Center
07:13PM 37.0394 -110.6292 242° Southwest 407 468 36,000  Level Denver Center
07:14PM 36.9811 -110.7525 239° Southwest 411 473 36,000  Level Denver Center
07:15PM 36.9242 -110.8761 240° Southwest 411 473 36,000  Level Denver Center
07:16PM 36.8661 -111.0014 240° Southwest 416 479 36,000  Level Denver Center
07:17PM 36.8064 -111.1261 239° Southwest 419 482 36,000  Level Denver Center
07:18PM 36.7494 -111.2500 240° Southwest 414 476 36,000  Level Denver Center
07:19PM 36.6906 -111.3728 239° Southwest 412 474 36,000  Level Denver Center
07:20PM 36.6306 -111.4989 239° Southwest 417 480 36,000  Level Denver Center
07:21PM 36.5694 -111.6247 239° Southwest 422 486 36,000  Level Denver Center
07:22PM 36.4978 -111.7742 239° Southwest 420 483 36,000  Level Denver Center
07:23PM 36.4375 -111.9000 239° Southwest 422 486 36,000  Level Denver Center
07:24PM 36.4006 -111.9772 239° Southwest 422 486 36,000  Level Los Angeles Center
07:25PM 36.3389 -112.1044 239° Southwest 427 491 36,000  Level Los Angeles Center
07:26PM 36.2767 -112.2317 239° Southwest 429 494 36,000  Level Los Angeles Center
07:27PM 36.2150 -112.3586 239° Southwest 429 494 36,000  Level Los Angeles Center
07:28PM 36.1531 -112.4864 239° Southwest 431 496 36,000  Level Los Angeles Center
07:29PM 36.0906 -112.6133 239° Southwest 431 496 36,000  Level Los Angeles Center
07:30PM 36.0153 -112.7644 238° Southwest 430 495 36,000  Level Los Angeles Center
07:31PM 35.9525 -112.8917 239° Southwest 431 496 36,000  Level Los Angeles Center
07:32PM 35.8933 -113.0081 238° Southwest 429 494 36,000  Level Los Angeles Center
07:33PM 35.8314 -113.1336 239° Southwest 433 498 36,000  Level Los Angeles Center
07:34PM 35.7550 -113.2864 238° Southwest 439 505 36,000  Level Los Angeles Center
07:35PM 35.6917 -113.4131 238° Southwest 441 507 36,000  Level Los Angeles Center
07:36PM 35.6278 -113.5394 238° Southwest 441 507 36,000  Level Los Angeles Center
07:37PM 35.5842 -113.6453 243° Southwest 440 506 36,000  Level Los Angeles Center
07:38PM 35.5197 -113.8050 244° Southwest 440 506 36,000  Level Los Angeles Center
07:39PM 35.4544 -113.9639 243° Southwest 439 505 36,000  Level Los Angeles Center
07:40PM 35.4014 -114.0911 243° Southwest 440 506 36,000  Level Los Angeles Center
07:41PM 35.3475 -114.2247 244° Southwest 436 502 36,000  Level Los Angeles Center
07:42PM 35.2925 -114.3583 243° Southwest 437 503 36,000  Level Los Angeles Center
07:44PM 35.2269 -114.5167 243° Southwest 435 501 36,000  Level Los Angeles Center
07:45PM 35.1603 -114.6744 243° Southwest 434 499 36,000  Level Los Angeles Center
07:46PM 35.1061 -114.8058 243° Southwest 433 498 36,000  Level Los Angeles Center
07:47PM 35.0500 -114.9375 243° Southwest 435 501 36,000  Level Los Angeles Center
07:48PM 34.9958 -115.0672 243° Southwest 432 497 36,000  Level Los Angeles Center
07:49PM 34.9403 -115.1986 243° Southwest 433 498 36,000  Level Los Angeles Center
07:50PM 34.8864 -115.3278 243° Southwest 427 491 36,000  Level Los Angeles Center
07:51PM 34.8194 -115.4836 242° Southwest 432 497 36,000 -180 Level Los Angeles Center
07:52PM 34.7675 -115.6069 243° Southwest 432 497 35,700 -660 Descending Los Angeles Center
07:53PM 34.7119 -115.7339 242° Southwest 428 493 34,700 -1,020 Descending Los Angeles Center
07:54PM 34.6586 -115.8589 243° Southwest 419 482 33,700 -1,020 Descending Los Angeles Center
07:55PM 34.6072 -115.9783 242° Southwest 406 467 32,700 -840 Descending Los Angeles Center
07:56PM 34.5542 -116.0986 242° Southwest 404 465 32,000 -360 Descending Los Angeles Center
07:57PM 34.4911 -116.2439 242° Southwest 405 466 32,000  Level Los Angeles Center
07:58PM 34.4372 -116.3650 242° Southwest 408 470 32,000 -480 Level Los Angeles Center
07:59PM 34.3850 -116.4839 242° Southwest 402 463 31,100 -1,260 Descending Los Angeles Center
08:00PM 34.3342 -116.5994 242° Southwest 393 452 29,500 -1,860 Descending Los Angeles Center
08:01PM 34.2811 -116.7175 241° Southwest 398 458 27,300 -2,400 Descending Los Angeles Center
08:02PM 34.2272 -116.8392 242° Southwest 407 468 24,600 -2,700 Descending Los Angeles Center
08:03PM 34.1750 -116.9556 242° Southwest 396 456 21,800 -2,700 Descending Los Angeles Center
08:04PM 34.1169 -117.0864 242° Southwest 379 436 19,100 -2,100 Descending Los Angeles Center
08:05PM 34.0667 -117.2167 245° Southwest 368 423 17,400 -1,680 Descending Southern California TRACON
08:06PM 34.0333 -117.3333 251° West 342 394 15,600 -1,740 Descending Southern California TRACON
08:07PM 34.0333 -117.4333 270° West 335 386 14,000 -1,620 Descending Southern California TRACON
08:08PM 34.0167 -117.5500 260° West 337 388 12,500 -1,560 Descending Southern California TRACON
08:09PM 34.0167 -117.6667 270° West 353 406 10,900 -1,260 Descending Southern California TRACON
08:10PM 34.0000 -117.7667 259° West 288 331 9,900 -1,260 Descending Southern California TRACON
08:11PM 33.9833 -117.8500 256° West 270 311 8,400 -1,440 Descending Southern California TRACON
08:12PM 33.9833 -117.9500 270° West 278 320 7,000 -1,320 Descending Southern California TRACON
08:13PM 33.9667 -118.0333 256° West 278 320 5,900 -1,380 Descending Southern California TRACON
08:14PM 33.9667 -118.1333 270° West 253 291 4,300 -1,440 Descending Southern California TRACON
08:15PM 33.9500 -118.2000 253° West 236 272 3,000 -1,200 Descending Southern California TRACON
08:16PM 33.9550 -118.2194 287° West 247 284 2,800 -780 Descending Los Angeles Center